sensor_id;sensor_type;location;lat;lon;timestamp;temperature;humidity
25138;DHT22;13112;50.986;4.354;2022-07-10T00:00:36;15.00;99.90
25138;DHT22;13112;50.986;4.354;2022-07-10T00:03:03;14.90;99.90
25138;DHT22;13112;50.986;4.354;2022-07-10T00:05:29;14.80;99.90
25138;DHT22;13112;50.986;4.354;2022-07-10T00:07:55;14.80;99.90
25138;DHT22;13112;50.986;4.354;2022-07-10T00:10:22;14.70;99.90
25138;DHT22;13112;50.986;4.354;2022-07-10T00:12:48;14.70;99.90
25138;DHT22;13112;50.986;4.354;2022-07-10T00:15:15;14.70;99.90
25138;DHT22;13112;50.986;4.354;2022-07-10T00:17:42;14.60;99.90
25138;DHT22;13112;50.986;4.354;2022-07-10T00:20:09;14.60;99.90
25138;DHT22;13112;50.986;4.354;2022-07-10T00:22:35;14.60;99.90
25138;DHT22;13112;50.986;4.354;2022-07-10T00:25:02;14.60;99.90
25138;DHT22;13112;50.986;4.354;2022-07-10T00:27:28;14.60;99.90
25138;DHT22;13112;50.986;4.354;2022-07-10T00:29:54;14.60;99.90
25138;DHT22;13112;50.986;4.354;2022-07-10T00:32:19;14.60;99.90
25138;DHT22;13112;50.986;4.354;2022-07-10T00:34:45;14.60;99.90
25138;DHT22;13112;50.986;4.354;2022-07-10T00:37:11;14.50;99.90
25138;DHT22;13112;50.986;4.354;2022-07-10T00:39:37;14.40;99.90
25138;DHT22;13112;50.986;4.354;2022-07-10T00:42:10;14.40;99.90
25138;DHT22;13112;50.986;4.354;2022-07-10T00:44:37;14.30;99.90
25138;DHT22;13112;50.986;4.354;2022-07-10T00:47:05;14.20;99.90
25138;DHT22;13112;50.986;4.354;2022-07-10T00:49:31;14.20;99.90
25138;DHT22;13112;50.986;4.354;2022-07-10T00:52:00;14.20;99.90
25138;DHT22;13112;50.986;4.354;2022-07-10T00:54:26;14.20;99.90
25138;DHT22;13112;50.986;4.354;2022-07-10T00:56:52;14.20;99.90
25138;DHT22;13112;50.986;4.354;2022-07-10T00:59:18;14.10;99.90
25138;DHT22;13112;50.986;4.354;2022-07-10T01:01:45;14.10;99.90
25138;DHT22;13112;50.986;4.354;2022-07-10T01:04:10;14.10;99.90
25138;DHT22;13112;50.986;4.354;2022-07-10T01:06:36;14.10;99.90
25138;DHT22;13112;50.986;4.354;2022-07-10T01:09:02;14.10;99.90
25138;DHT22;13112;50.986;4.354;2022-07-10T01:11:30;14.10;99.90
25138;DHT22;13112;50.986;4.354;2022-07-10T01:13:58;14.20;99.90
25138;DHT22;13112;50.986;4.354;2022-07-10T01:16:25;14.20;99.90
25138;DHT22;13112;50.986;4.354;2022-07-10T01:18:51;14.30;99.90
25138;DHT22;13112;50.986;4.354;2022-07-10T01:21:31;14.30;99.90
25138;DHT22;13112;50.986;4.354;2022-07-10T01:23:57;14.30;99.90
25138;DHT22;13112;50.986;4.354;2022-07-10T01:26:23;14.20;99.90
25138;DHT22;13112;50.986;4.354;2022-07-10T01:28:50;14.10;99.90
25138;DHT22;13112;50.986;4.354;2022-07-10T01:31:24;14.10;99.90
25138;DHT22;13112;50.986;4.354;2022-07-10T01:33:50;14.10;99.90
25138;DHT22;13112;50.986;4.354;2022-07-10T01:36:16;14.00;99.90
25138;DHT22;13112;50.986;4.354;2022-07-10T01:38:43;13.90;99.90
25138;DHT22;13112;50.986;4.354;2022-07-10T01:41:09;13.90;99.90
25138;DHT22;13112;50.986;4.354;2022-07-10T01:43:35;13.90;99.90
25138;DHT22;13112;50.986;4.354;2022-07-10T01:46:02;13.90;99.90
25138;DHT22;13112;50.986;4.354;2022-07-10T01:48:29;13.90;99.90
25138;DHT22;13112;50.986;4.354;2022-07-10T01:50:55;13.90;99.90
25138;DHT22;13112;50.986;4.354;2022-07-10T01:53:21;13.80;99.90
25138;DHT22;13112;50.986;4.354;2022-07-10T01:55:46;13.90;99.90
25138;DHT22;13112;50.986;4.354;2022-07-10T01:58:12;13.80;99.90
25138;DHT22;13112;50.986;4.354;2022-07-10T02:00:38;13.70;99.90
25138;DHT22;13112;50.986;4.354;2022-07-10T02:03:03;13.60;99.90
25138;DHT22;13112;50.986;4.354;2022-07-10T02:05:47;13.70;99.90
25138;DHT22;13112;50.986;4.354;2022-07-10T02:08:13;13.50;99.90
25138;DHT22;13112;50.986;4.354;2022-07-10T02:10:39;13.50;99.90
25138;DHT22;13112;50.986;4.354;2022-07-10T02:13:04;13.40;99.90
25138;DHT22;13112;50.986;4.354;2022-07-10T02:15:30;13.30;99.90
25138;DHT22;13112;50.986;4.354;2022-07-10T02:17:56;13.30;99.90
25138;DHT22;13112;50.986;4.354;2022-07-10T02:20:21;13.30;99.90
25138;DHT22;13112;50.986;4.354;2022-07-10T02:22:47;13.40;99.90
25138;DHT22;13112;50.986;4.354;2022-07-10T02:25:12;13.40;99.90
25138;DHT22;13112;50.986;4.354;2022-07-10T02:27:38;13.50;99.90
25138;DHT22;13112;50.986;4.354;2022-07-10T02:30:05;13.40;99.90
25138;DHT22;13112;50.986;4.354;2022-07-10T02:32:31;13.30;99.90
25138;DHT22;13112;50.986;4.354;2022-07-10T02:34:56;13.10;99.90
25138;DHT22;13112;50.986;4.354;2022-07-10T02:37:22;13.10;99.90
25138;DHT22;13112;50.986;4.354;2022-07-10T02:39:47;13.10;99.90
25138;DHT22;13112;50.986;4.354;2022-07-10T02:42:13;13.20;99.90
25138;DHT22;13112;50.986;4.354;2022-07-10T02:44:39;13.10;99.90
25138;DHT22;13112;50.986;4.354;2022-07-10T02:47:04;13.10;99.90
25138;DHT22;13112;50.986;4.354;2022-07-10T02:49:30;13.00;99.90
25138;DHT22;13112;50.986;4.354;2022-07-10T02:51:56;13.00;99.90
25138;DHT22;13112;50.986;4.354;2022-07-10T02:54:21;13.00;99.90
25138;DHT22;13112;50.986;4.354;2022-07-10T02:56:47;13.00;99.90
25138;DHT22;13112;50.986;4.354;2022-07-10T02:59:13;13.00;99.90
25138;DHT22;13112;50.986;4.354;2022-07-10T03:01:38;13.00;99.90
25138;DHT22;13112;50.986;4.354;2022-07-10T03:04:04;13.00;99.90
25138;DHT22;13112;50.986;4.354;2022-07-10T03:06:30;13.00;99.90
25138;DHT22;13112;50.986;4.354;2022-07-10T03:08:56;12.90;99.90
25138;DHT22;13112;50.986;4.354;2022-07-10T03:11:21;12.90;99.90
25138;DHT22;13112;50.986;4.354;2022-07-10T03:13:47;13.00;99.90
25138;DHT22;13112;50.986;4.354;2022-07-10T03:16:12;12.90;99.90
25138;DHT22;13112;50.986;4.354;2022-07-10T03:18:38;12.90;99.90
25138;DHT22;13112;50.986;4.354;2022-07-10T03:21:04;12.90;99.90
25138;DHT22;13112;50.986;4.354;2022-07-10T03:23:30;12.90;99.90
25138;DHT22;13112;50.986;4.354;2022-07-10T03:25:55;13.00;99.90
25138;DHT22;13112;50.986;4.354;2022-07-10T03:28:21;13.00;99.90
25138;DHT22;13112;50.986;4.354;2022-07-10T03:30:47;13.00;99.90
25138;DHT22;13112;50.986;4.354;2022-07-10T03:33:12;13.00;99.90
25138;DHT22;13112;50.986;4.354;2022-07-10T03:35:38;12.90;99.90
25138;DHT22;13112;50.986;4.354;2022-07-10T03:38:04;12.90;99.90
25138;DHT22;13112;50.986;4.354;2022-07-10T03:40:29;12.90;99.90
25138;DHT22;13112;50.986;4.354;2022-07-10T03:42:55;12.90;99.90
25138;DHT22;13112;50.986;4.354;2022-07-10T03:45:20;12.90;99.90
25138;DHT22;13112;50.986;4.354;2022-07-10T03:47:46;12.90;99.90
25138;DHT22;13112;50.986;4.354;2022-07-10T03:50:12;13.00;99.90
25138;DHT22;13112;50.986;4.354;2022-07-10T03:52:38;13.00;99.90
25138;DHT22;13112;50.986;4.354;2022-07-10T03:55:03;13.10;99.90
25138;DHT22;13112;50.986;4.354;2022-07-10T03:57:29;13.10;99.90
25138;DHT22;13112;50.986;4.354;2022-07-10T04:00:14;13.10;99.90
25138;DHT22;13112;50.986;4.354;2022-07-10T04:02:39;13.10;99.90
25138;DHT22;13112;50.986;4.354;2022-07-10T04:05:09;13.00;99.90
25138;DHT22;13112;50.986;4.354;2022-07-10T04:07:35;12.90;99.90
25138;DHT22;13112;50.986;4.354;2022-07-10T04:10:02;13.00;99.90
25138;DHT22;13112;50.986;4.354;2022-07-10T04:12:28;13.10;99.90
25138;DHT22;13112;50.986;4.354;2022-07-10T04:14:54;13.30;99.90
25138;DHT22;13112;50.986;4.354;2022-07-10T04:17:20;13.20;99.90
25138;DHT22;13112;50.986;4.354;2022-07-10T04:19:46;13.20;99.90
25138;DHT22;13112;50.986;4.354;2022-07-10T04:22:11;13.20;99.90
25138;DHT22;13112;50.986;4.354;2022-07-10T04:24:38;13.30;99.90
25138;DHT22;13112;50.986;4.354;2022-07-10T04:27:04;13.40;99.90
25138;DHT22;13112;50.986;4.354;2022-07-10T04:29:30;13.40;99.90
25138;DHT22;13112;50.986;4.354;2022-07-10T04:31:56;13.40;99.90
25138;DHT22;13112;50.986;4.354;2022-07-10T04:34:22;13.40;99.90
25138;DHT22;13112;50.986;4.354;2022-07-10T04:36:47;13.40;99.90
25138;DHT22;13112;50.986;4.354;2022-07-10T04:39:13;13.40;99.90
25138;DHT22;13112;50.986;4.354;2022-07-10T04:41:39;13.50;99.90
25138;DHT22;13112;50.986;4.354;2022-07-10T04:44:04;13.40;99.90
25138;DHT22;13112;50.986;4.354;2022-07-10T04:46:30;13.50;99.90
25138;DHT22;13112;50.986;4.354;2022-07-10T04:48:56;13.60;99.90
25138;DHT22;13112;50.986;4.354;2022-07-10T04:51:21;13.70;99.90
25138;DHT22;13112;50.986;4.354;2022-07-10T04:53:49;13.90;99.90
25138;DHT22;13112;50.986;4.354;2022-07-10T04:56:15;14.00;99.90
25138;DHT22;13112;50.986;4.354;2022-07-10T04:58:40;14.10;99.90
25138;DHT22;13112;50.986;4.354;2022-07-10T05:01:06;14.30;99.90
25138;DHT22;13112;50.986;4.354;2022-07-10T05:03:32;14.30;99.90
25138;DHT22;13112;50.986;4.354;2022-07-10T05:05:58;14.40;99.90
25138;DHT22;13112;50.986;4.354;2022-07-10T05:08:23;14.60;99.90
25138;DHT22;13112;50.986;4.354;2022-07-10T05:10:49;14.70;99.90
25138;DHT22;13112;50.986;4.354;2022-07-10T05:13:14;14.80;99.90
25138;DHT22;13112;50.986;4.354;2022-07-10T05:15:40;15.00;99.90
25138;DHT22;13112;50.986;4.354;2022-07-10T05:18:06;15.20;99.90
25138;DHT22;13112;50.986;4.354;2022-07-10T05:20:31;15.30;99.90
25138;DHT22;13112;50.986;4.354;2022-07-10T05:22:58;15.50;99.90
25138;DHT22;13112;50.986;4.354;2022-07-10T05:25:24;15.60;99.90
25138;DHT22;13112;50.986;4.354;2022-07-10T05:27:52;15.60;99.90
25138;DHT22;13112;50.986;4.354;2022-07-10T05:30:18;15.80;99.90
25138;DHT22;13112;50.986;4.354;2022-07-10T05:32:44;15.90;99.90
25138;DHT22;13112;50.986;4.354;2022-07-10T05:35:10;16.00;99.90
25138;DHT22;13112;50.986;4.354;2022-07-10T05:37:36;16.10;99.90
25138;DHT22;13112;50.986;4.354;2022-07-10T05:40:02;16.10;99.90
25138;DHT22;13112;50.986;4.354;2022-07-10T05:42:28;16.20;99.90
25138;DHT22;13112;50.986;4.354;2022-07-10T05:44:54;16.30;99.90
25138;DHT22;13112;50.986;4.354;2022-07-10T05:47:19;16.50;99.90
25138;DHT22;13112;50.986;4.354;2022-07-10T05:49:45;16.50;99.90
25138;DHT22;13112;50.986;4.354;2022-07-10T05:52:11;16.80;99.90
25138;DHT22;13112;50.986;4.354;2022-07-10T05:54:37;17.10;99.90
25138;DHT22;13112;50.986;4.354;2022-07-10T05:57:03;17.30;99.90
25138;DHT22;13112;50.986;4.354;2022-07-10T05:59:28;17.50;99.90
25138;DHT22;13112;50.986;4.354;2022-07-10T06:01:54;17.70;99.90
25138;DHT22;13112;50.986;4.354;2022-07-10T06:04:20;17.80;99.90
25138;DHT22;13112;50.986;4.354;2022-07-10T06:06:45;17.90;99.90
25138;DHT22;13112;50.986;4.354;2022-07-10T06:09:12;18.00;99.90
25138;DHT22;13112;50.986;4.354;2022-07-10T06:11:37;18.20;99.90
25138;DHT22;13112;50.986;4.354;2022-07-10T06:14:03;18.40;99.90
25138;DHT22;13112;50.986;4.354;2022-07-10T06:16:29;18.70;99.90
25138;DHT22;13112;50.986;4.354;2022-07-10T06:18:54;18.90;99.90
25138;DHT22;13112;50.986;4.354;2022-07-10T06:21:21;19.00;99.90
25138;DHT22;13112;50.986;4.354;2022-07-10T06:23:48;19.10;99.90
25138;DHT22;13112;50.986;4.354;2022-07-10T06:26:14;19.30;99.90
25138;DHT22;13112;50.986;4.354;2022-07-10T06:28:40;19.60;99.90
25138;DHT22;13112;50.986;4.354;2022-07-10T06:31:05;19.40;99.90
25138;DHT22;13112;50.986;4.354;2022-07-10T06:33:31;19.50;99.90
25138;DHT22;13112;50.986;4.354;2022-07-10T06:35:58;19.60;99.90
25138;DHT22;13112;50.986;4.354;2022-07-10T06:38:23;19.90;99.90
25138;DHT22;13112;50.986;4.354;2022-07-10T06:40:49;20.00;99.90
25138;DHT22;13112;50.986;4.354;2022-07-10T06:43:16;20.10;99.90
25138;DHT22;13112;50.986;4.354;2022-07-10T06:45:42;20.30;99.90
25138;DHT22;13112;50.986;4.354;2022-07-10T06:48:08;20.20;99.90
25138;DHT22;13112;50.986;4.354;2022-07-10T06:50:34;20.40;99.90
25138;DHT22;13112;50.986;4.354;2022-07-10T06:53:01;20.50;99.90
25138;DHT22;13112;50.986;4.354;2022-07-10T06:55:27;20.50;99.90
25138;DHT22;13112;50.986;4.354;2022-07-10T06:57:54;20.60;99.90
25138;DHT22;13112;50.986;4.354;2022-07-10T07:00:20;20.80;99.90
25138;DHT22;13112;50.986;4.354;2022-07-10T07:02:45;20.80;99.90
25138;DHT22;13112;50.986;4.354;2022-07-10T07:05:11;20.90;99.90
25138;DHT22;13112;50.986;4.354;2022-07-10T07:07:37;21.10;99.90
25138;DHT22;13112;50.986;4.354;2022-07-10T07:10:04;21.20;99.90
25138;DHT22;13112;50.986;4.354;2022-07-10T07:12:30;21.40;99.90
25138;DHT22;13112;50.986;4.354;2022-07-10T07:14:55;21.70;99.90
25138;DHT22;13112;50.986;4.354;2022-07-10T07:17:21;21.70;99.90
25138;DHT22;13112;50.986;4.354;2022-07-10T07:19:49;21.70;99.90
25138;DHT22;13112;50.986;4.354;2022-07-10T07:22:33;21.80;99.90
25138;DHT22;13112;50.986;4.354;2022-07-10T07:25:18;22.00;99.90
25138;DHT22;13112;50.986;4.354;2022-07-10T07:27:44;22.30;99.90
25138;DHT22;13112;50.986;4.354;2022-07-10T07:30:12;22.60;99.90
25138;DHT22;13112;50.986;4.354;2022-07-10T07:32:38;22.50;99.90
25138;DHT22;13112;50.986;4.354;2022-07-10T07:35:05;22.70;99.90
25138;DHT22;13112;50.986;4.354;2022-07-10T07:37:50;23.10;99.90
25138;DHT22;13112;50.986;4.354;2022-07-10T07:40:19;23.20;99.90
25138;DHT22;13112;50.986;4.354;2022-07-10T07:42:47;23.30;99.90
25138;DHT22;13112;50.986;4.354;2022-07-10T07:45:13;23.40;99.90
25138;DHT22;13112;50.986;4.354;2022-07-10T07:47:49;23.40;99.90
25138;DHT22;13112;50.986;4.354;2022-07-10T07:50:17;23.60;99.90
25138;DHT22;13112;50.986;4.354;2022-07-10T07:52:44;23.80;99.90
25138;DHT22;13112;50.986;4.354;2022-07-10T07:55:10;23.60;99.90
25138;DHT22;13112;50.986;4.354;2022-07-10T07:57:37;23.60;99.90
25138;DHT22;13112;50.986;4.354;2022-07-10T08:00:04;23.90;99.90
25138;DHT22;13112;50.986;4.354;2022-07-10T08:02:31;24.10;99.90
25138;DHT22;13112;50.986;4.354;2022-07-10T08:04:56;24.40;99.90
25138;DHT22;13112;50.986;4.354;2022-07-10T08:07:22;24.70;99.90
25138;DHT22;13112;50.986;4.354;2022-07-10T08:09:48;25.10;99.90
25138;DHT22;13112;50.986;4.354;2022-07-10T08:12:15;25.50;99.90
25138;DHT22;13112;50.986;4.354;2022-07-10T08:14:40;25.60;99.90
25138;DHT22;13112;50.986;4.354;2022-07-10T08:17:06;25.60;99.90
25138;DHT22;13112;50.986;4.354;2022-07-10T08:19:31;25.80;99.90
25138;DHT22;13112;50.986;4.354;2022-07-10T08:21:57;25.70;99.90
25138;DHT22;13112;50.986;4.354;2022-07-10T08:24:23;25.80;99.90
25138;DHT22;13112;50.986;4.354;2022-07-10T08:26:48;25.90;99.90
25138;DHT22;13112;50.986;4.354;2022-07-10T08:29:14;26.30;99.90
25138;DHT22;13112;50.986;4.354;2022-07-10T08:31:40;26.10;99.90
25138;DHT22;13112;50.986;4.354;2022-07-10T08:34:06;26.70;99.90
25138;DHT22;13112;50.986;4.354;2022-07-10T08:36:31;27.00;99.90
25138;DHT22;13112;50.986;4.354;2022-07-10T08:38:57;27.30;99.90
25138;DHT22;13112;50.986;4.354;2022-07-10T08:41:27;27.20;99.90
25138;DHT22;13112;50.986;4.354;2022-07-10T08:43:54;26.90;99.90
25138;DHT22;13112;50.986;4.354;2022-07-10T08:46:25;26.80;99.90
25138;DHT22;13112;50.986;4.354;2022-07-10T08:48:53;26.90;99.90
25138;DHT22;13112;50.986;4.354;2022-07-10T08:51:58;26.80;99.90
25138;DHT22;13112;50.986;4.354;2022-07-10T08:54:27;27.00;99.90
25138;DHT22;13112;50.986;4.354;2022-07-10T08:56:55;27.30;99.90
25138;DHT22;13112;50.986;4.354;2022-07-10T08:59:22;27.40;99.90
25138;DHT22;13112;50.986;4.354;2022-07-10T09:01:48;27.60;99.90
25138;DHT22;13112;50.986;4.354;2022-07-10T09:04:18;28.20;99.90
25138;DHT22;13112;50.986;4.354;2022-07-10T09:06:44;29.50;99.90
25138;DHT22;13112;50.986;4.354;2022-07-10T09:09:10;29.90;99.30
25138;DHT22;13112;50.986;4.354;2022-07-10T09:11:38;30.30;97.90
25138;DHT22;13112;50.986;4.354;2022-07-10T09:14:07;29.90;97.70
25138;DHT22;13112;50.986;4.354;2022-07-10T09:16:37;29.90;97.90
25138;DHT22;13112;50.986;4.354;2022-07-10T09:19:23;30.50;97.10
25138;DHT22;13112;50.986;4.354;2022-07-10T09:21:52;30.70;96.30
25138;DHT22;13112;50.986;4.354;2022-07-10T09:24:18;30.40;96.80
25138;DHT22;13112;50.986;4.354;2022-07-10T09:27:00;30.50;96.90
25138;DHT22;13112;50.986;4.354;2022-07-10T09:29:26;30.10;96.10
25138;DHT22;13112;50.986;4.354;2022-07-10T09:31:57;29.50;96.80
25138;DHT22;13112;50.986;4.354;2022-07-10T09:34:49;29.30;97.30
25138;DHT22;13112;50.986;4.354;2022-07-10T09:37:39;30.30;96.10
25138;DHT22;13112;50.986;4.354;2022-07-10T09:40:06;31.00;95.30
25138;DHT22;13112;50.986;4.354;2022-07-10T09:42:37;31.20;93.70
25138;DHT22;13112;50.986;4.354;2022-07-10T09:50:33;32.10;93.20
25138;DHT22;13112;50.986;4.354;2022-07-10T09:53:04;33.20;91.70
25138;DHT22;13112;50.986;4.354;2022-07-10T09:55:33;34.10;88.70
25138;DHT22;13112;50.986;4.354;2022-07-10T09:58:00;34.60;85.20
25138;DHT22;13112;50.986;4.354;2022-07-10T10:00:28;33.70;87.40
25138;DHT22;13112;50.986;4.354;2022-07-10T10:02:56;33.10;87.70
25138;DHT22;13112;50.986;4.354;2022-07-10T10:05:33;32.40;88.30
25138;DHT22;13112;50.986;4.354;2022-07-10T10:08:25;32.00;89.20
25138;DHT22;13112;50.986;4.354;2022-07-10T10:10:51;31.50;89.40
25138;DHT22;13112;50.986;4.354;2022-07-10T10:13:22;31.30;90.10
25138;DHT22;13112;50.986;4.354;2022-07-10T10:15:51;30.90;89.00
25138;DHT22;13112;50.986;4.354;2022-07-10T10:18:26;30.00;90.10
25138;DHT22;13112;50.986;4.354;2022-07-10T10:20:54;29.90;91.10
25138;DHT22;13112;50.986;4.354;2022-07-10T10:23:24;30.10;91.50
25138;DHT22;13112;50.986;4.354;2022-07-10T10:25:55;31.00;91.70
25138;DHT22;13112;50.986;4.354;2022-07-10T10:28:22;31.30;90.80
25138;DHT22;13112;50.986;4.354;2022-07-10T10:30:51;30.90;90.90
25138;DHT22;13112;50.986;4.354;2022-07-10T10:36:09;31.50;90.60
25138;DHT22;13112;50.986;4.354;2022-07-10T10:41:25;32.40;88.00
25138;DHT22;13112;50.986;4.354;2022-07-10T10:49:20;31.50;88.50
25138;DHT22;13112;50.986;4.354;2022-07-10T10:52:12;31.80;88.70
25138;DHT22;13112;50.986;4.354;2022-07-10T10:57:23;33.30;84.80
25138;DHT22;13112;50.986;4.354;2022-07-10T10:59:51;34.90;81.40
25138;DHT22;13112;50.986;4.354;2022-07-10T11:02:29;35.20;81.40
25138;DHT22;13112;50.986;4.354;2022-07-10T11:07:59;34.10;80.70
25138;DHT22;13112;50.986;4.354;2022-07-10T11:10:44;33.30;80.50
25138;DHT22;13112;50.986;4.354;2022-07-10T11:13:15;33.40;82.20
25138;DHT22;13112;50.986;4.354;2022-07-10T11:15:44;33.60;80.00
25138;DHT22;13112;50.986;4.354;2022-07-10T11:18:12;33.90;80.70
25138;DHT22;13112;50.986;4.354;2022-07-10T11:20:41;33.90;78.60
25138;DHT22;13112;50.986;4.354;2022-07-10T11:26:09;34.30;77.60
25138;DHT22;13112;50.986;4.354;2022-07-10T11:28:57;33.80;78.30
25138;DHT22;13112;50.986;4.354;2022-07-10T11:31:24;33.80;79.70
25138;DHT22;13112;50.986;4.354;2022-07-10T11:33:52;34.10;78.90
25138;DHT22;13112;50.986;4.354;2022-07-10T11:36:20;34.30;76.80
25138;DHT22;13112;50.986;4.354;2022-07-10T11:38:56;34.70;77.80
25138;DHT22;13112;50.986;4.354;2022-07-10T11:41:23;34.80;76.90
25138;DHT22;13112;50.986;4.354;2022-07-10T11:43:56;35.00;76.80
25138;DHT22;13112;50.986;4.354;2022-07-10T11:46:28;34.90;75.30
25138;DHT22;13112;50.986;4.354;2022-07-10T11:48:54;35.00;76.50
25138;DHT22;13112;50.986;4.354;2022-07-10T11:51:27;35.70;74.50
25138;DHT22;13112;50.986;4.354;2022-07-10T11:54:01;36.10;74.60
25138;DHT22;13112;50.986;4.354;2022-07-10T11:56:30;37.00;72.00
25138;DHT22;13112;50.986;4.354;2022-07-10T12:01:29;38.00;70.00
25138;DHT22;13112;50.986;4.354;2022-07-10T12:04:05;37.30;68.50
25138;DHT22;13112;50.986;4.354;2022-07-10T12:06:33;36.90;69.70
25138;DHT22;13112;50.986;4.354;2022-07-10T12:09:09;36.70;69.00
25138;DHT22;13112;50.986;4.354;2022-07-10T12:11:36;36.20;69.80
25138;DHT22;13112;50.986;4.354;2022-07-10T12:14:28;35.70;68.90
25138;DHT22;13112;50.986;4.354;2022-07-10T12:16:56;35.90;68.20
25138;DHT22;13112;50.986;4.354;2022-07-10T12:19:27;36.30;68.70
25138;DHT22;13112;50.986;4.354;2022-07-10T12:21:56;37.10;67.60
25138;DHT22;13112;50.986;4.354;2022-07-10T12:24:22;36.90;67.10
25138;DHT22;13112;50.986;4.354;2022-07-10T12:26:49;37.30;67.00
25138;DHT22;13112;50.986;4.354;2022-07-10T12:31:51;37.40;65.30
25138;DHT22;13112;50.986;4.354;2022-07-10T12:34:18;38.30;64.50
25138;DHT22;13112;50.986;4.354;2022-07-10T12:36:46;39.00;64.20
25138;DHT22;13112;50.986;4.354;2022-07-10T12:39:14;39.40;60.80
25138;DHT22;13112;50.986;4.354;2022-07-10T12:42:03;38.90;60.50
25138;DHT22;13112;50.986;4.354;2022-07-10T12:44:49;38.00;62.40
25138;DHT22;13112;50.986;4.354;2022-07-10T12:47:17;37.00;63.80
25138;DHT22;13112;50.986;4.354;2022-07-10T12:50:02;36.60;63.90
25138;DHT22;13112;50.986;4.354;2022-07-10T12:52:30;37.60;64.00
25138;DHT22;13112;50.986;4.354;2022-07-10T12:55:21;38.80;61.70
25138;DHT22;13112;50.986;4.354;2022-07-10T12:57:56;38.60;61.70
25138;DHT22;13112;50.986;4.354;2022-07-10T13:00:30;39.30;60.80
25138;DHT22;13112;50.986;4.354;2022-07-10T13:03:03;39.40;58.90
25138;DHT22;13112;50.986;4.354;2022-07-10T13:05:37;39.90;58.30
25138;DHT22;13112;50.986;4.354;2022-07-10T13:08:29;40.70;56.90
25138;DHT22;13112;50.986;4.354;2022-07-10T13:11:09;41.70;56.10
25138;DHT22;13112;50.986;4.354;2022-07-10T13:13:35;41.60;56.60
25138;DHT22;13112;50.986;4.354;2022-07-10T13:16:02;40.30;57.10
25138;DHT22;13112;50.986;4.354;2022-07-10T13:18:28;38.60;56.90
25138;DHT22;13112;50.986;4.354;2022-07-10T13:20:55;37.40;59.40
25138;DHT22;13112;50.986;4.354;2022-07-10T13:23:23;36.70;61.30
25138;DHT22;13112;50.986;4.354;2022-07-10T13:25:53;36.40;62.30
25138;DHT22;13112;50.986;4.354;2022-07-10T13:28:20;36.70;62.10
25138;DHT22;13112;50.986;4.354;2022-07-10T13:30:46;36.50;62.70
25138;DHT22;13112;50.986;4.354;2022-07-10T13:33:12;36.30;61.60
25138;DHT22;13112;50.986;4.354;2022-07-10T13:35:38;36.00;62.00
25138;DHT22;13112;50.986;4.354;2022-07-10T13:38:04;35.60;63.10
25138;DHT22;13112;50.986;4.354;2022-07-10T13:40:35;34.90;62.60
25138;DHT22;13112;50.986;4.354;2022-07-10T13:43:00;34.50;64.00
25138;DHT22;13112;50.986;4.354;2022-07-10T13:45:26;34.20;64.30
25138;DHT22;13112;50.986;4.354;2022-07-10T13:47:56;34.00;65.90
25138;DHT22;13112;50.986;4.354;2022-07-10T13:50:22;34.20;64.50
25138;DHT22;13112;50.986;4.354;2022-07-10T13:52:48;34.20;65.00
25138;DHT22;13112;50.986;4.354;2022-07-10T13:55:14;34.30;64.20
25138;DHT22;13112;50.986;4.354;2022-07-10T13:57:40;34.10;64.40
25138;DHT22;13112;50.986;4.354;2022-07-10T14:00:06;33.60;66.60
25138;DHT22;13112;50.986;4.354;2022-07-10T14:02:32;33.70;66.50
25138;DHT22;13112;50.986;4.354;2022-07-10T14:04:58;33.80;65.60
25138;DHT22;13112;50.986;4.354;2022-07-10T14:07:24;33.40;66.70
25138;DHT22;13112;50.986;4.354;2022-07-10T14:09:49;33.10;66.90
25138;DHT22;13112;50.986;4.354;2022-07-10T14:12:15;32.70;67.00
25138;DHT22;13112;50.986;4.354;2022-07-10T14:14:41;32.70;68.40
25138;DHT22;13112;50.986;4.354;2022-07-10T14:17:07;32.60;68.50
25138;DHT22;13112;50.986;4.354;2022-07-10T14:19:32;32.40;68.90
25138;DHT22;13112;50.986;4.354;2022-07-10T14:21:58;31.90;67.90
25138;DHT22;13112;50.986;4.354;2022-07-10T14:24:25;31.50;69.80
25138;DHT22;13112;50.986;4.354;2022-07-10T14:26:51;31.30;70.70
25138;DHT22;13112;50.986;4.354;2022-07-10T14:29:18;31.40;69.60
25138;DHT22;13112;50.986;4.354;2022-07-10T14:31:44;31.40;71.70
25138;DHT22;13112;50.986;4.354;2022-07-10T14:34:13;31.10;70.60
25138;DHT22;13112;50.986;4.354;2022-07-10T14:36:39;30.80;72.30
25138;DHT22;13112;50.986;4.354;2022-07-10T14:39:05;30.30;73.20
25138;DHT22;13112;50.986;4.354;2022-07-10T14:41:30;30.20;74.00
25138;DHT22;13112;50.986;4.354;2022-07-10T14:43:56;30.30;73.20
25138;DHT22;13112;50.986;4.354;2022-07-10T14:46:22;30.20;73.90
25138;DHT22;13112;50.986;4.354;2022-07-10T14:48:47;30.20;73.40
25138;DHT22;13112;50.986;4.354;2022-07-10T14:51:13;30.20;73.80
25138;DHT22;13112;50.986;4.354;2022-07-10T14:53:39;29.90;74.80
25138;DHT22;13112;50.986;4.354;2022-07-10T14:56:07;29.80;75.00
25138;DHT22;13112;50.986;4.354;2022-07-10T14:58:33;29.80;76.10
25138;DHT22;13112;50.986;4.354;2022-07-10T15:00:59;29.60;76.50
25138;DHT22;13112;50.986;4.354;2022-07-10T15:03:26;29.00;76.90
25138;DHT22;13112;50.986;4.354;2022-07-10T15:05:51;28.80;78.20
25138;DHT22;13112;50.986;4.354;2022-07-10T15:08:24;28.80;79.40
25138;DHT22;13112;50.986;4.354;2022-07-10T15:10:50;28.70;77.60
25138;DHT22;13112;50.986;4.354;2022-07-10T15:13:17;28.50;78.80
25138;DHT22;13112;50.986;4.354;2022-07-10T15:15:42;28.50;77.80
25138;DHT22;13112;50.986;4.354;2022-07-10T15:18:09;28.30;78.70
25138;DHT22;13112;50.986;4.354;2022-07-10T15:20:34;28.30;78.20
25138;DHT22;13112;50.986;4.354;2022-07-10T15:23:05;28.20;78.70
25138;DHT22;13112;50.986;4.354;2022-07-10T15:25:31;28.30;79.40
25138;DHT22;13112;50.986;4.354;2022-07-10T15:27:56;28.40;79.10
25138;DHT22;13112;50.986;4.354;2022-07-10T15:30:22;28.50;78.60
25138;DHT22;13112;50.986;4.354;2022-07-10T15:32:48;28.50;79.20
25138;DHT22;13112;50.986;4.354;2022-07-10T15:35:14;28.90;77.50
25138;DHT22;13112;50.986;4.354;2022-07-10T15:37:40;29.10;76.20
25138;DHT22;13112;50.986;4.354;2022-07-10T15:40:06;28.90;76.00
25138;DHT22;13112;50.986;4.354;2022-07-10T15:42:32;29.10;77.10
25138;DHT22;13112;50.986;4.354;2022-07-10T15:44:58;29.10;76.80
25138;DHT22;13112;50.986;4.354;2022-07-10T15:47:24;29.10;77.60
25138;DHT22;13112;50.986;4.354;2022-07-10T15:49:50;29.10;77.60
25138;DHT22;13112;50.986;4.354;2022-07-10T15:52:15;29.00;77.70
25138;DHT22;13112;50.986;4.354;2022-07-10T15:54:41;29.20;77.40
25138;DHT22;13112;50.986;4.354;2022-07-10T15:57:07;28.80;77.60
25138;DHT22;13112;50.986;4.354;2022-07-10T15:59:33;28.50;77.10
25138;DHT22;13112;50.986;4.354;2022-07-10T16:02:00;28.30;77.70
25138;DHT22;13112;50.986;4.354;2022-07-10T16:04:26;28.00;79.40